createdAt,value
2018-09-18T00:02:13.044Z,100854.00
2018-09-18T00:04:42.904Z,100852.00
2018-09-18T00:07:12.525Z,100852.00
2018-09-18T00:09:42.506Z,100846.00
2018-09-18T00:12:12.078Z,100852.00
2018-09-18T00:14:41.779Z,100851.00
2018-09-18T00:17:11.081Z,100847.00
2018-09-18T00:19:40.525Z,100837.00
2018-09-18T00:22:09.926Z,100844.00
2018-09-18T00:24:39.788Z,100843.00
2018-09-18T00:27:09.436Z,100834.00
2018-09-18T00:29:39.266Z,100836.00
2018-09-18T00:32:08.695Z,100834.00
2018-09-18T00:34:38.485Z,100827.00
2018-09-18T00:37:08.239Z,100825.00
2018-09-18T00:39:37.839Z,100835.00
2018-09-18T00:42:07.633Z,100839.00
2018-09-18T00:44:37.251Z,100845.00
2018-09-18T00:47:07.083Z,100832.00
2018-09-18T00:49:36.928Z,100824.00
2018-09-18T00:52:06.059Z,100821.00
2018-09-18T00:54:35.530Z,100822.00
2018-09-18T00:57:05.200Z,100817.00
2018-09-18T00:59:34.612Z,100813.00
2018-09-18T01:02:03.910Z,100818.00
2018-09-18T01:04:33.771Z,100807.00
2018-09-18T01:07:03.991Z,100807.00
2018-09-18T01:09:33.702Z,100816.00
2018-09-18T01:12:03.548Z,100811.00
2018-09-18T01:14:34.652Z,100806.00
2018-09-18T01:17:04.389Z,100806.00
2018-09-18T01:19:34.148Z,100798.00
2018-09-18T01:22:03.758Z,100796.00
2018-09-18T01:24:33.629Z,100801.00
2018-09-18T01:27:03.629Z,100798.00
2018-09-18T01:29:33.488Z,100793.00
2018-09-18T01:32:03.258Z,100800.00
2018-09-18T01:34:32.863Z,100792.00
2018-09-18T01:37:02.678Z,100795.00
2018-09-18T01:39:32.306Z,100791.00
2018-09-18T01:42:01.904Z,100797.00
2018-09-18T01:44:31.276Z,100786.00
2018-09-18T01:47:00.866Z,100792.00
2018-09-18T01:49:30.768Z,100782.00
2018-09-18T01:52:00.388Z,100783.00
2018-09-18T01:54:29.802Z,100783.00
2018-09-18T01:56:58.991Z,100793.00
2018-09-18T01:59:29.097Z,100777.00
2018-09-18T02:01:58.554Z,100786.00
2018-09-18T02:04:28.617Z,100790.00
2018-09-18T02:06:58.473Z,100784.00
2018-09-18T02:09:28.450Z,100779.00
2018-09-18T02:11:58.161Z,100782.00
2018-09-18T02:14:27.692Z,100773.00
2018-09-18T02:16:57.573Z,100773.00
2018-09-18T02:19:27.207Z,100772.00
2018-09-18T02:21:56.646Z,100761.00
2018-09-18T02:24:26.402Z,100773.00
2018-09-18T02:26:56.083Z,100768.00
2018-09-18T02:29:25.876Z,100768.00
2018-09-18T02:31:55.399Z,100764.00
2018-09-18T02:34:25.007Z,100771.00
2018-09-18T02:36:54.511Z,100768.00
2018-09-18T02:39:24.025Z,100763.00
2018-09-18T02:41:53.829Z,100768.00
2018-09-18T02:44:23.568Z,100748.00
2018-09-18T02:46:53.495Z,100749.00
2018-09-18T02:49:23.223Z,100747.00
2018-09-18T02:51:53.088Z,100759.00
2018-09-18T02:54:22.648Z,100758.00
2018-09-18T02:56:52.447Z,100754.00
2018-09-18T02:59:21.644Z,100745.00
2018-09-18T03:01:51.141Z,100752.00
2018-09-18T03:04:22.154Z,100753.00
2018-09-18T03:06:51.893Z,100749.00
2018-09-18T03:09:21.652Z,100747.00
2018-09-18T03:11:50.962Z,100733.00
2018-09-18T03:14:20.769Z,100737.00
2018-09-18T03:16:50.833Z,100743.00
2018-09-18T03:19:20.837Z,100745.00
2018-09-18T03:21:50.764Z,100742.00
2018-09-18T03:24:20.589Z,100738.00
2018-09-18T03:26:50.082Z,100733.00
2018-09-18T03:29:19.663Z,100735.00
2018-09-18T03:31:49.165Z,100728.00
2018-09-18T03:34:18.341Z,100733.00
2018-09-18T03:36:47.933Z,100732.00
2018-09-18T03:39:17.871Z,100724.00
2018-09-18T03:41:47.387Z,100719.00
2018-09-18T03:44:17.201Z,100717.00
2018-09-18T03:46:48.335Z,100719.00
2018-09-18T03:49:18.599Z,100707.00
2018-09-18T03:51:48.610Z,100716.00
2018-09-18T03:54:18.313Z,100714.00
2018-09-18T03:56:47.851Z,100720.00
2018-09-18T03:59:17.602Z,100707.00
2018-09-18T04:01:47.903Z,100710.00
2018-09-18T04:04:17.557Z,100696.00
2018-09-18T04:06:47.393Z,100706.00
2018-09-18T04:09:17.482Z,100696.00
2018-09-18T04:11:47.084Z,100700.00
2018-09-18T04:14:17.031Z,100696.00
2018-09-18T04:16:46.183Z,100707.00
2018-09-18T04:19:16.161Z,100703.00
2018-09-18T04:21:45.383Z,100708.00
2018-09-18T04:24:14.906Z,100707.00
2018-09-18T04:26:44.427Z,100710.00
2018-09-18T04:29:14.048Z,100710.00
2018-09-18T04:31:43.753Z,100707.00
2018-09-18T04:34:13.001Z,100698.00
2018-09-18T04:36:42.631Z,100707.00
2018-09-18T04:39:13.471Z,100709.00
2018-09-18T04:41:42.970Z,100694.00
2018-09-18T04:44:12.556Z,100694.00
2018-09-18T04:46:41.674Z,100699.00
2018-09-18T04:49:10.891Z,100691.00
2018-09-18T04:51:40.799Z,100681.00
2018-09-18T04:54:10.146Z,100693.00
2018-09-18T04:56:39.639Z,100687.00
2018-09-18T04:59:10.293Z,100684.00
2018-09-18T05:01:40.176Z,100691.00
2018-09-18T05:04:10.385Z,100693.00
2018-09-18T05:06:42.057Z,100689.00
2018-09-18T05:09:13.789Z,100687.00
2018-09-18T05:11:44.564Z,100693.00
2018-09-18T05:14:16.623Z,100690.00
2018-09-18T05:16:47.850Z,100683.00
2018-09-18T05:19:18.356Z,100684.00
2018-09-18T05:21:49.080Z,100694.00
2018-09-18T05:24:20.193Z,100688.00
2018-09-18T05:26:51.531Z,100684.00
2018-09-18T05:29:23.555Z,100681.00
2018-09-18T05:31:54.285Z,100685.00
2018-09-18T05:34:26.016Z,100690.00
2018-09-18T05:36:58.485Z,100678.00
2018-09-18T05:39:29.629Z,100686.00
2018-09-18T05:42:01.286Z,100685.00
2018-09-18T05:44:32.065Z,100687.00
2018-09-18T05:47:03.064Z,100686.00
2018-09-18T05:49:34.244Z,100678.00
2018-09-18T05:52:04.342Z,100673.00
2018-09-18T05:54:34.856Z,100675.00
2018-09-18T05:57:05.861Z,100677.00
2018-09-18T05:59:36.843Z,100685.00
2018-09-18T06:02:07.917Z,100679.00
2018-09-18T06:04:38.948Z,100674.00
2018-09-18T06:07:09.389Z,100673.00
2018-09-18T06:09:39.764Z,100673.00
2018-09-18T06:12:10.140Z,100665.00
2018-09-18T06:14:40.340Z,100666.00
2018-09-18T06:17:10.773Z,100670.00
2018-09-18T06:19:40.833Z,100666.00
2018-09-18T06:22:11.480Z,100666.00
2018-09-18T06:24:41.525Z,100672.00
2018-09-18T06:27:11.823Z,100674.00
2018-09-18T06:29:42.989Z,100668.00
2018-09-18T06:32:12.995Z,100672.00
2018-09-18T06:34:42.965Z,100678.00
2018-09-18T06:37:13.062Z,100674.00
2018-09-18T06:39:43.621Z,100676.00
2018-09-18T06:42:14.208Z,100671.00
2018-09-18T06:44:46.161Z,100679.00
2018-09-18T06:47:16.825Z,100669.00
2018-09-18T06:49:47.307Z,100664.00
2018-09-18T06:52:18.145Z,100668.00
2018-09-18T06:54:48.342Z,100673.00
2018-09-18T06:57:19.121Z,100670.00
2018-09-18T06:59:50.229Z,100671.00
2018-09-18T07:02:20.231Z,100682.00
2018-09-18T07:04:50.201Z,100679.00
2018-09-18T07:07:20.395Z,100678.00
2018-09-18T07:09:50.569Z,100678.00
2018-09-18T07:12:20.576Z,100673.00
2018-09-18T07:14:51.556Z,100672.00
2018-09-18T07:17:22.032Z,100661.00
2018-09-18T07:19:51.995Z,100665.00
2018-09-18T07:22:21.836Z,100666.00
2018-09-18T07:24:53.545Z,100668.00
2018-09-18T07:27:23.566Z,100663.00
2018-09-18T07:29:53.775Z,100664.00
2018-09-18T07:32:24.380Z,100666.00
2018-09-18T07:34:54.617Z,100671.00
2018-09-18T07:37:25.522Z,100665.00
2018-09-18T07:39:55.623Z,100662.00
2018-09-18T07:42:26.722Z,100662.00
2018-09-18T07:44:56.926Z,100658.00
2018-09-18T07:47:27.022Z,100664.00
2018-09-18T07:49:57.108Z,100665.00
2018-09-18T07:52:28.547Z,100666.00
2018-09-18T07:54:59.148Z,100665.00
2018-09-18T07:57:29.382Z,100658.00
2018-09-18T08:00:00.821Z,100655.00
2018-09-18T08:02:31.384Z,100653.00
2018-09-18T08:05:01.697Z,100657.00
2018-09-18T08:07:31.995Z,100654.00
2018-09-18T08:10:01.651Z,100653.00
2018-09-18T08:12:31.854Z,100646.00
2018-09-18T08:15:02.399Z,100648.00
2018-09-18T08:17:32.948Z,100648.00
2018-09-18T08:20:02.961Z,100646.00
2018-09-18T08:22:33.163Z,100636.00
2018-09-18T08:25:04.057Z,100654.00
2018-09-18T08:27:34.157Z,100642.00
2018-09-18T08:30:04.172Z,100643.00
2018-09-18T08:32:34.449Z,100642.00
2018-09-18T08:35:07.989Z,100647.00
2018-09-18T08:37:38.484Z,100643.00
2018-09-18T08:40:08.972Z,100632.00
2018-09-18T08:42:39.122Z,100647.00
2018-09-18T08:45:08.891Z,100638.00
2018-09-18T08:47:39.257Z,100645.00
2018-09-18T08:50:09.071Z,100645.00
2018-09-18T08:52:39.313Z,100640.00
2018-09-18T08:55:09.835Z,100638.00
2018-09-18T08:57:40.075Z,100641.00
2018-09-18T09:00:10.460Z,100638.00
2018-09-18T09:02:40.460Z,100641.00
2018-09-18T09:05:10.563Z,100636.00
2018-09-18T09:07:40.359Z,100639.00
2018-09-18T09:10:10.362Z,100635.00
2018-09-18T09:12:40.275Z,100631.00
2018-09-18T09:15:10.361Z,100629.00
2018-09-18T09:17:40.483Z,100631.00
2018-09-18T09:20:10.204Z,100627.00
2018-09-18T09:22:39.749Z,100615.00
2018-09-18T09:25:09.895Z,100619.00
2018-09-18T09:27:41.188Z,100611.00
2018-09-18T09:30:11.575Z,100618.00
2018-09-18T09:32:41.505Z,100615.00
2018-09-18T09:35:11.576Z,100610.00
2018-09-18T09:37:41.633Z,100613.00
2018-09-18T09:40:11.797Z,100603.00
2018-09-18T09:42:41.625Z,100599.00
2018-09-18T09:45:11.818Z,100614.00
2018-09-18T09:47:41.846Z,100596.00
2018-09-18T09:50:12.239Z,100583.00
2018-09-18T09:52:42.027Z,100598.00
2018-09-18T09:55:11.825Z,100597.00
2018-09-18T09:57:41.953Z,100591.00
2018-09-18T10:00:16.539Z,100583.00
2018-09-18T10:02:49.070Z,100581.00
2018-09-18T10:05:19.819Z,100583.00
2018-09-18T10:07:49.797Z,100581.00
2018-09-18T10:10:19.778Z,100590.00
2018-09-18T10:12:49.759Z,100577.00
2018-09-18T10:15:19.945Z,100591.00
2018-09-18T10:17:49.993Z,100575.00
2018-09-18T10:20:19.638Z,100573.00
2018-09-18T10:22:49.335Z,100567.00
2018-09-18T10:25:19.583Z,100578.00
2018-09-18T10:27:49.544Z,100571.00
2018-09-18T10:30:19.305Z,100587.00
2018-09-18T10:32:49.389Z,100570.00
2018-09-18T10:35:19.470Z,100572.00
2018-09-18T10:37:50.550Z,100565.00
2018-09-18T10:40:20.631Z,100565.00
2018-09-18T10:42:50.473Z,100576.00
2018-09-18T10:45:20.383Z,100559.00
2018-09-18T10:47:50.473Z,100556.00
2018-09-18T10:50:20.363Z,100566.00
2018-09-18T10:52:51.469Z,100553.00
2018-09-18T10:55:21.809Z,100549.00
2018-09-18T10:57:52.393Z,100535.00
2018-09-18T11:00:22.260Z,100548.00
2018-09-18T11:02:52.156Z,100545.00
2018-09-18T11:05:21.774Z,100547.00
2018-09-18T11:07:51.696Z,100554.00
2018-09-18T11:10:21.614Z,100553.00
2018-09-18T11:12:51.955Z,100547.00
2018-09-18T11:15:22.284Z,100538.00
2018-09-18T11:17:52.397Z,100547.00
2018-09-18T11:20:22.309Z,100538.00
2018-09-18T11:22:52.133Z,100532.00
2018-09-18T11:25:21.945Z,100538.00
2018-09-18T11:27:51.841Z,100527.00
2018-09-18T11:30:21.928Z,100522.00
2018-09-18T11:32:51.651Z,100532.00
2018-09-18T11:35:21.414Z,100523.00
2018-09-18T11:37:51.357Z,100527.00
2018-09-18T11:40:21.405Z,100537.00
2018-09-18T11:42:51.739Z,100525.00
2018-09-18T11:45:22.035Z,100512.00
2018-09-18T11:47:51.493Z,100526.00
2018-09-18T11:50:21.365Z,100518.00
2018-09-18T11:52:51.036Z,100512.00
2018-09-18T11:55:21.057Z,100513.00
2018-09-18T11:57:52.042Z,100515.00
2018-09-18T12:00:22.354Z,100519.00
2018-09-18T12:02:52.335Z,100511.00
2018-09-18T12:05:22.076Z,100500.00
2018-09-18T12:07:51.831Z,100496.00
2018-09-18T12:10:21.808Z,100500.00
2018-09-18T12:12:54.435Z,100492.00
2018-09-18T12:15:24.350Z,100489.00
2018-09-18T12:17:54.152Z,100504.00
2018-09-18T12:20:24.533Z,100490.00
2018-09-18T12:22:54.277Z,100502.00
2018-09-18T12:25:24.353Z,100476.00
2018-09-18T12:27:54.593Z,100476.00
2018-09-18T12:30:24.650Z,100473.00
2018-09-18T12:32:54.502Z,100473.00
2018-09-18T12:35:25.047Z,100482.00
2018-09-18T12:37:54.751Z,100480.00
2018-09-18T12:40:24.873Z,100469.00
2018-09-18T12:42:54.737Z,100469.00
2018-09-18T12:45:25.710Z,100470.00
2018-09-18T12:47:55.558Z,100473.00
2018-09-18T12:50:26.351Z,100471.00
2018-09-18T12:52:56.794Z,100466.00
2018-09-18T12:55:26.998Z,100460.00
2018-09-18T12:57:57.384Z,100462.00
2018-09-18T13:00:27.052Z,100465.00
2018-09-18T13:02:56.508Z,100452.00
2018-09-18T13:05:26.529Z,100451.00
2018-09-18T13:07:57.157Z,100450.00
2018-09-18T13:10:27.453Z,100447.00
2018-09-18T13:12:58.823Z,100450.00
2018-09-18T13:15:29.430Z,100439.00
2018-09-18T13:17:59.648Z,100446.00
2018-09-18T13:20:29.576Z,100437.00
2018-09-18T13:22:59.717Z,100437.00
2018-09-18T13:25:30.020Z,100440.00
2018-09-18T13:28:00.455Z,100432.00
2018-09-18T13:30:30.868Z,100429.00
2018-09-18T13:33:00.412Z,100425.00
2018-09-18T13:35:30.638Z,100432.00
2018-09-18T13:38:00.513Z,100429.00
2018-09-18T13:40:31.020Z,100429.00
2018-09-18T13:43:01.246Z,100422.00
2018-09-18T13:45:31.730Z,100421.00
2018-09-18T13:48:01.530Z,100420.00
2018-09-18T13:50:31.411Z,100418.00
2018-09-18T13:53:01.659Z,100414.00
2018-09-18T13:55:31.875Z,100411.00
2018-09-18T13:58:02.022Z,100409.00
2018-09-18T14:00:31.965Z,100421.00
2018-09-18T14:03:03.060Z,100411.00
2018-09-18T14:05:33.115Z,100403.00
2018-09-18T14:08:03.839Z,100398.00
2018-09-18T14:10:34.412Z,100400.00
2018-09-18T14:13:05.008Z,100403.00
2018-09-18T14:15:34.915Z,100394.00
2018-09-18T14:18:04.784Z,100386.00
2018-09-18T14:20:34.675Z,100397.00
2018-09-18T14:23:04.802Z,100398.00
2018-09-18T14:25:34.693Z,100402.00
2018-09-18T14:28:04.524Z,100399.00
2018-09-18T14:30:35.174Z,100384.00
2018-09-18T14:33:05.552Z,100374.00
2018-09-18T14:35:37.474Z,100382.00
2018-09-18T14:38:08.525Z,100379.00
2018-09-18T14:40:38.756Z,100394.00
2018-09-18T14:43:09.993Z,100376.00
2018-09-18T14:45:39.614Z,100378.00
2018-09-18T14:48:10.008Z,100375.00
2018-09-18T14:50:40.673Z,100380.00
2018-09-18T14:53:10.671Z,100372.00
2018-09-18T14:55:40.706Z,100380.00
2018-09-18T14:58:10.739Z,100378.00
2018-09-18T15:00:40.710Z,100376.00
2018-09-18T15:03:11.058Z,100385.00
2018-09-18T15:05:40.771Z,100374.00
2018-09-18T15:08:11.091Z,100374.00
2018-09-18T15:10:41.883Z,100376.00
2018-09-18T15:13:13.357Z,100379.00
2018-09-18T15:15:45.592Z,100377.00
2018-09-18T15:18:15.908Z,100387.00
2018-09-18T15:20:46.953Z,100393.00
2018-09-18T15:23:17.307Z,100387.00
2018-09-18T15:25:48.011Z,100389.00
2018-09-18T15:28:18.098Z,100389.00
2018-09-18T15:30:49.076Z,100388.00
2018-09-18T15:33:19.434Z,100391.00
2018-09-18T15:35:50.560Z,100398.00
2018-09-18T15:38:21.784Z,100393.00
2018-09-18T15:40:53.764Z,100385.00
2018-09-18T15:43:24.432Z,100387.00
2018-09-18T15:45:55.198Z,100383.00
2018-09-18T15:48:25.825Z,100386.00
2018-09-18T15:50:56.460Z,100392.00
2018-09-18T15:53:27.466Z,100382.00
2018-09-18T15:55:59.061Z,100382.00
2018-09-18T15:58:31.720Z,100385.00
2018-09-18T16:01:03.182Z,100380.00
2018-09-18T16:03:34.425Z,100383.00
2018-09-18T16:06:07.076Z,100371.00
2018-09-18T16:08:39.972Z,100372.00
2018-09-18T16:11:11.700Z,100370.00
2018-09-18T16:13:42.578Z,100375.00
2018-09-18T16:16:13.187Z,100368.00
2018-09-18T16:18:46.126Z,100373.00
2018-09-18T16:21:16.304Z,100368.00
2018-09-18T16:23:47.134Z,100368.00
2018-09-18T16:26:18.255Z,100369.00
2018-09-18T16:28:49.478Z,100371.00
2018-09-18T16:31:21.112Z,100376.00
2018-09-18T16:33:52.165Z,100378.00
2018-09-18T16:36:23.248Z,100372.00
2018-09-18T16:38:54.601Z,100379.00
2018-09-18T16:41:25.303Z,100377.00
2018-09-18T16:43:55.908Z,100375.00
2018-09-18T16:46:26.953Z,100386.00
2018-09-18T16:48:58.788Z,100378.00
2018-09-18T16:51:29.761Z,100382.00
2018-09-18T16:54:01.289Z,100388.00
2018-09-18T16:56:33.834Z,100389.00
2018-09-18T16:59:04.801Z,100398.00
2018-09-18T17:01:36.275Z,100392.00
2018-09-18T17:04:07.120Z,100394.00
2018-09-18T17:06:39.459Z,100396.00
2018-09-18T17:09:10.798Z,100411.00
2018-09-18T17:11:40.825Z,100420.00
2018-09-18T17:14:11.182Z,100417.00
2018-09-18T17:16:41.151Z,100418.00
2018-09-18T17:19:11.733Z,100429.00
2018-09-18T17:21:42.519Z,100432.00
2018-09-18T17:24:13.944Z,100430.00
2018-09-18T17:26:44.163Z,100433.00
2018-09-18T17:29:14.700Z,100430.00
2018-09-18T17:31:43.964Z,100434.00
2018-09-18T17:34:13.917Z,100436.00
2018-09-18T17:36:43.104Z,100434.00
2018-09-18T17:39:13.137Z,100436.00
2018-09-18T17:41:43.006Z,100439.00
2018-09-18T17:44:14.178Z,100440.00
2018-09-18T17:46:43.799Z,100439.00
2018-09-18T17:49:14.360Z,100446.00
2018-09-18T17:51:43.767Z,100452.00
2018-09-18T17:54:13.301Z,100456.00
2018-09-18T17:56:42.950Z,100457.00
2018-09-18T17:59:12.357Z,100463.00
2018-09-18T18:01:41.834Z,100465.00
2018-09-18T18:04:11.619Z,100467.00
2018-09-18T18:06:41.702Z,100470.00
2018-09-18T18:09:11.882Z,100474.00
2018-09-18T18:11:41.917Z,100477.00
2018-09-18T18:14:11.584Z,100478.00
2018-09-18T18:16:41.533Z,100485.00
2018-09-18T18:19:11.494Z,100487.00
2018-09-18T18:21:41.534Z,100488.00
2018-09-18T18:24:11.959Z,100492.00
2018-09-18T18:26:42.814Z,100495.00
2018-09-18T18:29:12.825Z,100497.00
2018-09-18T18:31:43.120Z,100503.00
2018-09-18T18:34:12.459Z,100507.00
2018-09-18T18:36:43.084Z,100515.00
2018-09-18T18:39:13.165Z,100514.00
2018-09-18T18:41:43.124Z,100516.00
2018-09-18T18:44:12.868Z,100514.00
2018-09-18T18:46:42.574Z,100515.00
2018-09-18T18:49:12.381Z,100522.00
2018-09-18T18:51:43.065Z,100529.00
2018-09-18T18:54:12.913Z,100535.00
2018-09-18T18:56:42.705Z,100534.00
2018-09-18T18:59:12.581Z,100535.00
2018-09-18T19:01:42.432Z,100531.00
2018-09-18T19:04:12.979Z,100537.00
2018-09-18T19:06:42.685Z,100540.00
2018-09-18T19:09:12.349Z,100547.00
2018-09-18T19:11:42.414Z,100548.00
2018-09-18T19:14:11.984Z,100548.00
2018-09-18T19:16:42.227Z,100551.00
2018-09-18T19:19:12.461Z,100555.00
2018-09-18T19:21:42.645Z,100555.00
2018-09-18T19:24:12.399Z,100562.00
2018-09-18T19:26:42.128Z,100570.00
2018-09-18T19:29:11.715Z,100564.00
2018-09-18T19:31:41.707Z,100573.00
2018-09-18T19:34:11.660Z,100576.00
2018-09-18T19:36:41.974Z,100578.00
2018-09-18T19:39:12.255Z,100579.00
2018-09-18T19:41:42.029Z,100579.00
2018-09-18T19:44:11.986Z,100589.00
2018-09-18T19:46:41.644Z,100581.00
2018-09-18T19:49:11.473Z,100597.00
2018-09-18T19:51:41.698Z,100594.00
2018-09-18T19:54:12.200Z,100596.00
2018-09-18T19:56:42.158Z,100606.00
2018-09-18T19:59:11.880Z,100604.00
2018-09-18T20:01:41.915Z,100606.00
2018-09-18T20:04:13.203Z,100611.00
2018-09-18T20:06:43.002Z,100611.00
2018-09-18T20:09:12.861Z,100612.00
2018-09-18T20:11:42.720Z,100622.00
2018-09-18T20:14:12.316Z,100628.00
2018-09-18T20:16:42.658Z,100625.00
2018-09-18T20:19:13.089Z,100632.00
2018-09-18T20:21:43.095Z,100634.00
2018-09-18T20:24:12.994Z,100650.00
2018-09-18T20:26:42.521Z,100648.00
2018-09-18T20:29:12.221Z,100648.00
2018-09-18T20:31:41.886Z,100643.00
2018-09-18T20:34:11.637Z,100654.00
2018-09-18T20:36:43.490Z,100656.00
2018-09-18T20:39:13.208Z,100652.00
2018-09-18T20:41:43.305Z,100653.00
2018-09-18T20:44:13.863Z,100663.00
2018-09-18T20:46:43.570Z,100668.00
2018-09-18T20:49:13.495Z,100672.00
2018-09-18T20:51:43.610Z,100673.00
2018-09-18T20:54:13.832Z,100683.00
2018-09-18T20:56:44.152Z,100675.00
2018-09-18T20:59:13.765Z,100679.00
2018-09-18T21:01:44.225Z,100687.00
2018-09-18T21:04:14.839Z,100701.00
2018-09-18T21:06:44.441Z,100704.00
2018-09-18T21:09:13.900Z,100709.00
2018-09-18T21:11:43.938Z,100703.00
2018-09-18T21:14:13.851Z,100715.00
2018-09-18T21:16:43.540Z,100721.00
2018-09-18T21:19:13.171Z,100723.00
2018-09-18T21:21:43.461Z,100726.00
2018-09-18T21:24:13.236Z,100734.00
2018-09-18T21:26:43.198Z,100727.00
2018-09-18T21:29:12.842Z,100729.00
2018-09-18T21:31:43.516Z,100731.00
2018-09-18T21:34:13.580Z,100728.00
2018-09-18T21:36:43.797Z,100737.00
2018-09-18T21:39:14.173Z,100738.00
2018-09-18T21:41:44.133Z,100740.00
2018-09-18T21:44:14.104Z,100751.00
2018-09-18T21:46:44.045Z,100752.00
2018-09-18T21:49:13.806Z,100759.00
2018-09-18T21:51:43.801Z,100760.00
2018-09-18T21:54:13.532Z,100765.00
2018-09-18T21:56:43.597Z,100761.00
2018-09-18T21:59:13.235Z,100772.00
2018-09-18T22:01:43.047Z,100762.00
2018-09-18T22:04:12.522Z,100771.00
2018-09-18T22:06:42.597Z,100784.00
2018-09-18T22:09:12.275Z,100786.00
2018-09-18T22:11:42.192Z,100790.00
2018-09-18T22:14:11.791Z,100798.00
2018-09-18T22:16:41.735Z,100814.00
2018-09-18T22:19:11.615Z,100816.00
2018-09-18T22:21:41.981Z,100817.00
2018-09-18T22:24:12.289Z,100820.00
2018-09-18T22:26:41.953Z,100827.00
2018-09-18T22:29:12.043Z,100827.00
2018-09-18T22:31:42.087Z,100828.00
2018-09-18T22:34:12.895Z,100834.00
2018-09-18T22:36:42.612Z,100837.00
2018-09-18T22:39:12.518Z,100849.00
2018-09-18T22:41:42.532Z,100844.00
2018-09-18T22:44:11.881Z,100844.00
2018-09-18T22:46:41.797Z,100855.00
2018-09-18T22:49:11.710Z,100849.00
2018-09-18T22:51:41.655Z,100859.00
2018-09-18T22:54:11.611Z,100856.00
2018-09-18T22:56:41.689Z,100849.00
2018-09-18T22:59:11.657Z,100856.00
2018-09-18T23:01:41.504Z,100852.00
2018-09-18T23:04:11.505Z,100852.00
2018-09-18T23:06:41.188Z,100853.00
2018-09-18T23:09:11.092Z,100852.00
2018-09-18T23:11:40.985Z,100845.00
2018-09-18T23:14:10.665Z,100850.00
2018-09-18T23:16:40.187Z,100858.00
2018-09-18T23:19:10.042Z,100859.00
2018-09-18T23:21:40.117Z,100860.00
2018-09-18T23:24:09.935Z,100859.00
2018-09-18T23:26:39.997Z,100861.00
2018-09-18T23:29:09.638Z,100863.00
2018-09-18T23:31:39.525Z,100869.00
2018-09-18T23:34:09.405Z,100877.00
2018-09-18T23:36:38.786Z,100876.00
2018-09-18T23:39:09.550Z,100875.00
2018-09-18T23:41:39.353Z,100869.00
2018-09-18T23:44:09.637Z,100876.00
2018-09-18T23:46:39.518Z,100879.00
2018-09-18T23:49:08.953Z,100884.00
2018-09-18T23:51:38.648Z,100878.00
2018-09-18T23:54:08.940Z,100878.00
2018-09-18T23:56:38.676Z,100876.00
2018-09-18T23:59:08.195Z,100878.00
